M I D A S
Marine Information and Data Acquisition System
Tripno 68 of the Zeeleeuw from 2001-11-29 08:50:00 to 2001-11-29 17:00:00
Back to CruiseResearch ActivitiesStationsMapUnderway DataData graphs

EquipmentUnitsComment
TimeDGPSUTC
LatitudeDGPSDM.mWGS84
LongitudeDGPSDM.mWGS84
TemperatureSBE03/SBE38deg celciusITS90
ConductivitySBE21S/mITS90
SalinitySBE21 Practical Salinity Units
ChlorophylAChelsea fluorimeterg/lCalibrated in Aceton
Missing or incorrect values are displayed as -999
Sea surface data collected by the RV Zeeleeuw from 2001-11-29 08:50:00 to 2001-11-29 17:00:00
                                                                                    Next 1000 lines
Time Latitude Longitude Temperature Conductivity Salinity ChlorophylA
2001-11-29 08:50:07 51°20.311 2°58.781 20.988694 0.008754 0.048003  
2001-11-29 08:50:13 51°20.332 2°58.769 21.194448 0.008754 0.048003  
2001-11-29 08:50:17 51°20.346 2°58.761 21.420075 0.008754 0.048002  
2001-11-29 08:50:21 51°20.36 2°58.752 20.816708 0.008754 0.048003  
2001-11-29 08:50:28 51°20.384 2°58.738 20.606763 0.008754 0.048003  
2001-11-29 08:50:33 51°20.401 2°58.726 21.19783 0.008754 0.048003  
2001-11-29 08:50:37 51°20.414 2°58.716 21.19783 0.008754 0.048003  
2001-11-29 08:50:42 51°20.432 2°58.707 20.797186 0.008754 0.048003  
2001-11-29 08:50:48 51°20.452 2°58.691 20.811748 0.008754 0.048003  
2001-11-29 08:50:53 51°20.469 2°58.682 20.750199 0.008754 0.048002  
2001-11-29 08:50:57 51°20.483 2°58.671 20.981352 0.008754 0.048003  
2001-11-29 08:51:03 51°20.503 2°58.658 21.404091 0.008754 0.048003  
2001-11-29 08:51:08 51°20.52 2°58.645 21.404091 0.008754 0.048003  
2001-11-29 08:51:13 51°20.537 2°58.635 20.673167 0.008754 0.048005  
2001-11-29 08:51:17 51°20.551 2°58.627 20.729897 0.008754 0.048004  
2001-11-29 08:51:21 51°20.564 2°58.617 20.959919 0.008754 0.048006  
2001-11-29 08:51:28 51°20.589 2°58.602 21.263802 0.008754 0.048004  
2001-11-29 08:51:33 51°20.606 2°58.59 20.499246 0.008754 0.048005  
2001-11-29 08:51:37 51°20.62 2°58.583 20.499246 0.008754 0.048005  
2001-11-29 08:51:43 51°20.64 2°58.569 20.832506 0.008754 0.048005  
2001-11-29 08:51:47 51°20.654 2°58.561 20.699895 0.008754 0.048006  
2001-11-29 08:51:53 51°20.675 2°58.547 20.526562 0.008754 0.048006  
2001-11-29 08:51:57 51°20.688 2°58.539 20.344025 0.008754 0.048005  
2001-11-29 08:52:03 51°20.709 2°58.525 20.484499 0.008754 0.048006  
2001-11-29 08:52:08 51°20.726 2°58.514 20.484499 0.008754 0.048006  
2001-11-29 08:52:13 51°20.743 2°58.502 20.297662 0.008655 0.047538  
2001-11-29 08:52:18 51°20.761 2°58.491 20.501094 0.008655 0.047537  
2001-11-29 08:52:22 51°20.774 2°58.482 20.722448 0.008655 0.047538  
2001-11-29 08:52:28 51°20.795 2°58.469 20.486548 0.008655 0.047538  
2001-11-29 08:52:33 51°20.812 2°58.458 20.101481 0.008655 0.047537  
2001-11-29 08:52:38 51°20.83 2°58.448 20.101481 0.008655 0.047537  
2001-11-29 08:52:43 51°20.847 2°58.437 21.009201 0.008655 0.047538  
2001-11-29 08:52:48 51°20.865 2°58.428 20.849699 0.008655 0.047537  
2001-11-29 08:52:53 51°20.882 2°58.416 20.556959 0.008655 0.047538  
2001-11-29 08:52:57 51°20.896 2°58.408 21.270996 0.008655 0.047537  
2001-11-29 08:53:03 51°20.917 2°58.396 20.682385 0.008655 0.047539  
2001-11-29 08:53:08 51°20.934 2°58.384 20.682385 0.008655 0.047539  
2001-11-29 08:53:13 51°20.951 2°58.374 21.004852 0.008655 0.047539  
2001-11-29 08:53:17 51°20.965 2°58.366 20.869527 0.008655 0.047539  
2001-11-29 08:53:23 51°20.986 2°58.353 21.09818 0.008655 0.047539  
2001-11-29 08:53:28 51°21.004 2°58.343 20.748998 0.008655 0.047539  
2001-11-29 08:53:32 51°21.017 2°58.333 21.056854 0.008655 0.04754  
2001-11-29 08:53:38 51°21.038 2°58.321 21.056854 0.008655 0.04754  
2001-11-29 08:53:43 51°21.055 2°58.31 20.872604 0.008655 0.04754  
2001-11-29 08:53:48 51°21.073 2°58.3 20.62714 0.008655 0.04754  
2001-11-29 08:53:53 51°21.089 2°58.288 20.863651 0.008655 0.04754  
2001-11-29 08:53:57 51°21.103 2°58.279 21.086625 0.008655 0.04754  
2001-11-29 08:54:03 51°21.123 2°58.266 20.827587 0.008655 0.04754  
2001-11-29 08:54:07 51°21.137 2°58.257 20.827587 0.008655 0.04754  
2001-11-29 08:54:13 51°21.158 2°58.244 20.830786 0.008655 0.04754  
2001-11-29 08:54:17 51°21.171 2°58.235 21.278864 0.008655 0.047541  
2001-11-29 08:54:23 51°21.192 2°58.222 20.862252 0.008655 0.047541  
2001-11-29 08:54:27 51°21.206 2°58.213 21.052867 0.008655 0.047541  
2001-11-29 08:54:33 51°21.226 2°58.2 20.987098 0.008655 0.047541  
2001-11-29 08:54:37 51°21.24 2°58.19 20.987098 0.008655 0.047541  
2001-11-29 08:54:41 51°21.254 2°58.182 20.496996 0.008655 0.047541  
2001-11-29 08:54:47 51°21.275 2°58.169 20.84914 0.008655 0.047542  
2001-11-29 08:54:53 51°21.296 2°58.156 20.977441 0.008655 0.047542  
2001-11-29 08:54:58 51°21.312 2°58.143 20.87808 0.008655 0.047542  
2001-11-29 08:55:03 51°21.329 2°58.133 20.980793 0.008655 0.047543  
2001-11-29 08:55:08 51°21.346 2°58.121 20.980793 0.008655 0.047543  
2001-11-29 08:55:13 51°21.363 2°58.11 21.139442 0.008655 0.047542  
2001-11-29 08:55:17 51°21.377 2°58.101 20.806188 0.008655 0.047542  
2001-11-29 08:55:23 51°21.397 2°58.087 20.843582 0.008655 0.047543  
2001-11-29 08:55:27 51°21.411 2°58.079 21.011434 0.008556 0.047074  
2001-11-29 08:55:33 51°21.431 2°58.066 20.901974 0.008655 0.047543  
2001-11-29 08:55:37 51°21.444 2°58.058 20.901974 0.008655 0.047543  
2001-11-29 08:55:43 51°21.465 2°58.045 20.869087 0.008556 0.047074  
2001-11-29 08:55:48 51°21.482 2°58.035 20.836865 0.008556 0.047074  
2001-11-29 08:55:53 51°21.499 2°58.025 21.231162 0.008556 0.047074  
2001-11-29 08:55:57 51°21.512 2°58.015 21.104355 0.008556 0.047075  
2001-11-29 08:56:03 51°21.533 2°58.003 20.959999 0.008556 0.047075  
2001-11-29 08:56:08 51°21.55 2°57.992 20.959999 0.008556 0.047075  
2001-11-29 08:56:13 51°21.567 2°57.981 20.792065 0.008556 0.047075  
2001-11-29 08:56:18 51°21.584 2°57.969 21.191265 0.008556 0.047076  
2001-11-29 08:56:23 51°21.6 2°57.956 20.607164 0.008556 0.047075  
2001-11-29 08:56:27 51°21.614 2°57.946 21.052588 0.008556 0.047074  
2001-11-29 08:56:33 51°21.634 2°57.93 20.967822 0.008556 0.047075  
2001-11-29 08:56:37 51°21.647 2°57.921 20.967822 0.008556 0.047075  
2001-11-29 08:56:43 51°21.668 2°57.908 20.596893 0.008556 0.047074  
2001-11-29 08:56:48 51°21.685 2°57.897 21.395085 0.008556 0.047074  
2001-11-29 08:56:53 51°21.702 2°57.886 20.835585 0.008556 0.047074  
2001-11-29 08:56:58 51°21.719 2°57.875 21.336304 0.008556 0.047075  
2001-11-29 08:57:03 51°21.736 2°57.866 20.772456 0.008556 0.047075  
2001-11-29 08:57:08 51°21.754 2°57.856 20.772456 0.008556 0.047075  
2001-11-29 08:57:13 51°21.771 2°57.847 21.175309 0.008556 0.047075  
2001-11-29 08:57:17 51°21.786 2°57.84 21.305683 0.008556 0.047076  
2001-11-29 08:57:23 51°21.807 2°57.828 20.421537 0.008556 0.047076  
2001-11-29 08:57:28 51°21.825 2°57.819 20.523952 0.008556 0.047075  
2001-11-29 08:57:33 51°21.843 2°57.809 20.453467 0.008556 0.047076  
2001-11-29 08:57:37 51°21.857 2°57.803 20.453467 0.008556 0.047076  
2001-11-29 08:57:43 51°21.878 2°57.791 20.445627 0.008556 0.047076  
2001-11-29 08:57:47 51°21.893 2°57.784 20.388346 0.008556 0.047076  
2001-11-29 08:57:53 51°21.914 2°57.772 20.716801 0.008556 0.047076  
2001-11-29 08:57:57 51°21.928 2°57.766 20.484338 0.008556 0.047076  
2001-11-29 08:58:03 51°21.949 2°57.754 20.148175 0.008556 0.047077  
2001-11-29 08:58:08 51°21.966 2°57.746 20.148175 0.008556 0.047077  
2001-11-29 08:58:13 51°21.984 2°57.735 20.248527 0.008556 0.047077  
2001-11-29 08:58:17 51°21.997 2°57.727 20.611537 0.008556 0.047075  
2001-11-29 08:58:23 51°22.018 2°57.715 20.573016 0.008556 0.047075  
2001-11-29 08:58:27 51°22.032 2°57.707 20.673688 0.008556 0.047075  
2001-11-29 08:58:33 51°22.053 2°57.695 20.876321 0.008556 0.047075  
2001-11-29 08:58:38 51°22.071 2°57.686 20.876321 0.008556 0.047075  
2001-11-29 08:58:43 51°22.088 2°57.675 20.658897 0.008556 0.047077  
2001-11-29 08:58:48 51°22.105 2°57.668 21.238756 0.008458 0.046609  
2001-11-29 08:58:53 51°22.123 2°57.657 21.321372 0.008556 0.047077  
2001-11-29 08:58:58 51°22.141 2°57.65 20.639251 0.008458 0.046609  
2001-11-29 08:59:03 51°22.158 2°57.637 20.759687 0.008458 0.04661  
2001-11-29 08:59:08 51°22.175 2°57.628 20.759687 0.008458 0.04661  
2001-11-29 08:59:13 51°22.192 2°57.616 20.537165 0.008458 0.046608  
2001-11-29 08:59:17 51°22.206 2°57.61 21.347579 0.008556 0.047077  
2001-11-29 08:59:21 51°22.221 2°57.602 20.826147 0.008458 0.046609  
2001-11-29 08:59:28 51°22.245 2°57.589 20.757245 0.008458 0.04661  
2001-11-29 08:59:33 51°22.262 2°57.578 20.564787 0.008458 0.046609  
2001-11-29 08:59:37 51°22.277 2°57.572 20.564787 0.008458 0.046609  
2001-11-29 08:59:43 51°22.298 2°57.56 20.523068 0.008458 0.04661  
2001-11-29 08:59:48 51°22.316 2°57.553 21.121403 0.008458 0.04661  
2001-11-29 08:59:53 51°22.334 2°57.541 21.270757 0.008458 0.04661  
2001-11-29 08:59:57 51°22.348 2°57.535 20.365766 0.008458 0.04661  
2001-11-29 09:00:03 51°22.368 2°57.523 20.908446 0.008458 0.046611  
2001-11-29 09:00:08 51°22.386 2°57.514 20.908446 0.008458 0.046611  
2001-11-29 09:00:13 51°22.404 2°57.506 20.948022 0.008458 0.04661  
2001-11-29 09:00:17 51°22.418 2°57.497 20.968581 0.008458 0.046611  
2001-11-29 09:00:23 51°22.439 2°57.486 20.789104 0.008458 0.046611  
2001-11-29 09:00:27 51°22.453 2°57.479 20.991886 0.008458 0.046611  
2001-11-29 09:00:33 51°22.474 2°57.465 20.157018 0.008458 0.046611  
2001-11-29 09:00:37 51°22.488 2°57.458 20.157018 0.008458 0.046611  
2001-11-29 09:00:41 51°22.501 2°57.448 20.718082 0.008458 0.046611  
2001-11-29 09:00:48 51°22.526 2°57.435 20.581524 0.008458 0.046611  
2001-11-29 09:00:53 51°22.543 2°57.422 20.945347 0.008458 0.046611  
2001-11-29 09:00:57 51°22.558 2°57.416 20.499447 0.008458 0.046611  
2001-11-29 09:01:03 51°22.577 2°57.401 20.316356 0.008458 0.046611  
2001-11-29 09:01:08 51°22.595 2°57.391 20.316356 0.008458 0.046611  
2001-11-29 09:01:13 51°22.611 2°57.378 20.411119 0.008458 0.046611  
2001-11-29 09:01:18 51°22.629 2°57.369 20.584494 0.008458 0.046611  
2001-11-29 09:01:23 51°22.646 2°57.358 20.399371 0.008458 0.046611  
2001-11-29 09:01:28 51°22.663 2°57.349 20.730458 0.008458 0.046612  
2001-11-29 09:01:33 51°22.68 2°57.337 20.508888 0.008458 0.046612  
2001-11-29 09:01:37 51°22.695 2°57.33 20.508888 0.008458 0.046612  
2001-11-29 09:01:41 51°22.708 2°57.32 20.561215 0.008458 0.046612  
2001-11-29 09:01:48 51°22.733 2°57.308 20.475335 0.008458 0.046611  
2001-11-29 09:01:53 51°22.75 2°57.296 20.465568 0.008458 0.046611  
2001-11-29 09:01:58 51°22.768 2°57.287 20.727254 0.008458 0.046612  
2001-11-29 09:02:03 51°22.785 2°57.275 20.969139 0.008458 0.046612  
2001-11-29 09:02:08 51°22.804 2°57.267 20.969139 0.008458 0.046612  
2001-11-29 09:02:13 51°22.821 2°57.255 20.908366 0.008458 0.046612  
2001-11-29 09:02:17 51°22.835 2°57.249 20.382349 0.008458 0.046612  
2001-11-29 09:02:23 51°22.856 2°57.234 21.143782 0.008458 0.046613  
2001-11-29 09:02:28 51°22.874 2°57.226 20.305036 0.008359 0.046144  
2001-11-29 09:02:33 51°22.891 2°57.214 20.63476 0.008458 0.046612  
2001-11-29 09:02:38 51°22.908 2°57.205 20.63476 0.008458 0.046612  
2001-11-29 09:02:43 51°22.926 2°57.194 21.064507 0.008359 0.046144  
2001-11-29 09:02:47 51°22.94 2°57.186 21.118336 0.008359 0.046145  
2001-11-29 09:02:53 51°22.961 2°57.173 20.385207 0.008359 0.046145  
2001-11-29 09:02:57 51°22.975 2°57.166 20.469025 0.008359 0.046146  
2001-11-29 09:03:03 51°22.996 2°57.153 20.69104 0.008359 0.046144  
2001-11-29 09:03:08 51°23.014 2°57.145 20.69104 0.008359 0.046144  
2001-11-29 09:03:13 51°23.031 2°57.134 21.002738 0.008359 0.046146  
2001-11-29 09:03:18 51°23.048 2°57.125 20.394945 0.008359 0.046146  
2001-11-29 09:03:23 51°23.066 2°57.117 20.839624 0.008359 0.046146  
2001-11-29 09:03:28 51°23.083 2°57.106 20.625776 0.008359 0.046146  
2001-11-29 09:03:33 51°23.101 2°57.097 20.996834 0.008359 0.046146  
2001-11-29 09:03:37 51°23.115 2°57.088 20.996834 0.008359 0.046146  
2001-11-29 09:03:43 51°23.136 2°57.076 20.420974 0.008359 0.046146  
2001-11-29 09:03:48 51°23.153 2°57.065 21.032892 0.008359 0.046146  
2001-11-29 09:03:53 51°23.17 2°57.054 20.813628 0.008359 0.046146  
2001-11-29 09:03:58 51°23.187 2°57.042 20.747076 0.008359 0.046146  
2001-11-29 09:04:02 51°23.2 2°57.034 20.375547 0.008359 0.046146  
2001-11-29 09:04:08 51°23.221 2°57.021 20.375547 0.008359 0.046146  
2001-11-29 09:04:13 51°23.238 2°57.01 20.748918 0.008359 0.046146  
2001-11-29 09:04:17 51°23.252 2°57.002 20.797866 0.008359 0.046147  
2001-11-29 09:04:23 51°23.272 2°56.985 21.168742 0.008359 0.046147  
2001-11-29 09:04:28 51°23.289 2°56.974 21.346031 0.008359 0.046147  
2001-11-29 09:04:33 51°23.305 2°56.958 20.559007 0.008359 0.046147  
2001-11-29 09:04:37 51°23.319 2°56.951 20.559007 0.008359 0.046147  
2001-11-29 09:04:42 51°23.336 2°56.937 20.181076 0.008359 0.046147  
2001-11-29 09:04:48 51°23.356 2°56.923 18.940766 0.008359 0.046144  
2001-11-29 09:04:53 51°23.373 2°56.911 18.942656 0.008359 0.046127  
2001-11-29 09:04:58 51°23.39 2°56.901 18.94471 0.008359 0.046115  
2001-11-29 09:05:03 51°23.406 2°56.889 18.935261 0.008359 0.04612  
2001-11-29 09:05:08 51°23.424 2°56.88 18.935261 0.008359 0.04612  
2001-11-29 09:05:13 51°23.441 2°56.868 18.928605 0.008359 0.046126  
2001-11-29 09:05:17 51°23.454 2°56.861 18.966971 0.008359 0.046133  
2001-11-29 09:05:23 51°23.475 2°56.848 18.992057 0.008359 0.046129  
2001-11-29 09:05:28 51°23.492 2°56.838 18.98746 0.008359 0.046123  
2001-11-29 09:05:33 51°23.509 2°56.826 18.927496 0.008359 0.046128  
2001-11-29 09:05:38 51°23.526 2°56.814 18.927496 0.008359 0.046128  
2001-11-29 09:05:43 51°23.543 2°56.804 18.937603 0.008359 0.046141  
2001-11-29 09:05:47 51°23.556 2°56.793 18.847615 0.008359 0.046154  
2001-11-29 09:05:53 51°23.576 2°56.78 18.865466 0.008359 0.046149  
2001-11-29 09:05:57 51°23.589 2°56.769 18.876322 0.008359 0.046151  
2001-11-29 09:06:03 51°23.608 2°56.752 18.864479 0.008359 0.046151  
2001-11-29 09:06:08 51°23.625 2°56.738 18.864479 0.008359 0.046151  
2001-11-29 09:06:13 51°23.64 2°56.723 18.881914 0.008261 0.045683  
2001-11-29 09:06:17 51°23.653 2°56.714 18.860284 0.008359 0.046149  
2001-11-29 09:06:21 51°23.666 2°56.701 18.855513 0.008359 0.04615  
2001-11-29 09:06:28 51°23.689 2°56.683 18.851975 0.008261 0.045682  
2001-11-29 09:06:33 51°23.705 2°56.67 18.855842 0.008359 0.046149  
2001-11-29 09:06:37 51°23.718 2°56.661 18.855842 0.008359 0.046149  
2001-11-29 09:06:43 51°23.738 2°56.646 18.856952 0.008261 0.045681  
2001-11-29 09:06:48 51°23.754 2°56.634 18.837577 0.008261 0.045681  
2001-11-29 09:06:53 51°23.77 2°56.621 18.841444 0.008261 0.04568  
2001-11-29 09:06:57 51°23.784 2°56.613 18.869989 0.008261 0.04568  
2001-11-29 09:07:03 51°23.803 2°56.596 18.851523 0.008261 0.045681  
2001-11-29 09:07:08 51°23.819 2°56.585 18.851523 0.008261 0.045681  
2001-11-29 09:07:13 51°23.835 2°56.571 18.828155 0.008261 0.045681  
2001-11-29 09:07:17 51°23.848 2°56.562 18.837207 0.008261 0.045681  
2001-11-29 09:07:23 51°23.867 2°56.546 18.837454 0.008261 0.045681  
2001-11-29 09:07:28 51°23.884 2°56.535 18.830048 0.008261 0.045683  
2001-11-29 09:07:33 51°23.9 2°56.521 18.835561 0.008261 0.045683  
2001-11-29 09:07:37 51°23.913 2°56.512 18.835561 0.008261 0.045683  
2001-11-29 09:07:43 51°23.933 2°56.498 18.86818 0.008261 0.045683  
2001-11-29 09:07:48 51°23.95 2°56.486 18.829431 0.008261 0.045683  
2001-11-29 09:07:53 51°23.966 2°56.474 18.815728 0.008261 0.045683  
2001-11-29 09:07:58 51°23.983 2°56.463 18.902674 0.008261 0.045683  
2001-11-29 09:08:03 51°24 2°56.451 18.819925 0.008261 0.045683  
2001-11-29 09:08:08 51°24.016 2°56.44 18.819925 0.008261 0.045683  
2001-11-29 09:08:13 51°24.033 2°56.428 18.847985 0.008261 0.045684  
2001-11-29 09:08:17 51°24.045 2°56.418 18.819555 0.008261 0.045685  
2001-11-29 09:08:21 51°24.059 2°56.41 18.872868 0.008261 0.045685  
2001-11-29 09:08:28 51°24.08 2°56.39 18.865836 0.008261 0.045685  
2001-11-29 09:08:33 51°24.097 2°56.379 18.796506 0.008261 0.045684  
2001-11-29 09:08:37 51°24.109 2°56.366 18.796506 0.008261 0.045684  
2001-11-29 09:08:42 51°24.126 2°56.356 18.833052 0.008261 0.045685  
2001-11-29 09:08:48 51°24.145 2°56.339 18.800293 0.008261 0.045685  
2001-11-29 09:08:53 51°24.161 2°56.329 18.866083 0.008261 0.045684  
2001-11-29 09:08:58 51°24.177 2°56.315 18.806179 0.008261 0.045685  
2001-11-29 09:09:03 51°24.195 2°56.305 18.820913 0.008261 0.045685  
2001-11-29 09:09:08 51°24.21 2°56.291 18.820913 0.008261 0.045685  
2001-11-29 09:09:12 51°24.224 2°56.283 18.816674 0.008261 0.045685  
2001-11-29 09:09:18 51°24.243 2°56.266 18.78222 0.008261 0.045686  
2001-11-29 09:09:23 51°24.259 2°56.254 18.818896 0.008261 0.045685  
2001-11-29 09:09:28 51°24.276 2°56.243 18.794942 0.008261 0.045685  
2001-11-29 09:09:33 51°24.292 2°56.23 18.796506 0.008261 0.045686  
2001-11-29 09:09:37 51°24.305 2°56.22 18.796506 0.008261 0.045686  
2001-11-29 09:09:43 51°24.326 2°56.205 18.830336 0.008261 0.045686  
2001-11-29 09:09:48 51°24.342 2°56.194 18.786378 0.008261 0.045686  
2001-11-29 09:09:52 51°24.356 2°56.185 18.784031 0.008261 0.045686  
2001-11-29 09:09:57 51°24.373 2°56.172 18.803051 0.008261 0.045686  
2001-11-29 09:10:03 51°24.394 2°56.16 18.844448 0.008261 0.045686  
2001-11-29 09:10:08 51°24.411 2°56.148 18.844448 0.008261 0.045686  
2001-11-29 09:10:13 51°24.429 2°56.136 18.808196 0.008261 0.045687  
2001-11-29 09:10:17 51°24.442 2°56.126 18.778391 0.008261 0.045687  
2001-11-29 09:10:22 51°24.459 2°56.115 18.808319 0.008162 0.04522  
2001-11-29 09:10:28 51°24.48 2°56.101 18.793542 0.008162 0.04522  
2001-11-29 09:10:33 51°24.497 2°56.089 18.763112 0.008162 0.04522  
2001-11-29 09:10:37 51°24.511 2°56.081 18.763112 0.008162 0.04522  
2001-11-29 09:10:43 51°24.531 2°56.068 18.778679 0.008261 0.045687  
2001-11-29 09:10:48 51°24.548 2°56.056 18.777649 0.008162 0.04522  
2001-11-29 09:10:53 51°24.565 2°56.044 18.812764 0.008162 0.04522  
2001-11-29 09:10:57 51°24.579 2°56.036 18.796876 0.008162 0.045221  
2001-11-29 09:11:03 51°24.599 2°56.02 18.775673 0.008162 0.045221  
2001-11-29 09:11:07 51°24.613 2°56.012 18.775673 0.008162 0.045221  
2001-11-29 09:11:13 51°24.633 2°55.995 18.744412 0.008162 0.045221  
2001-11-29 09:11:17 51°24.647 2°55.987 18.791031 0.008162 0.045221  
2001-11-29 09:11:23 51°24.667 2°55.97 18.786914 0.008162 0.045221  
2001-11-29 09:11:28 51°24.684 2°55.959 18.764142 0.008162 0.045221  
2001-11-29 09:11:32 51°24.697 2°55.946 18.870976 0.008162 0.045221  
2001-11-29 09:11:37 51°24.714 2°55.935 18.870976 0.008162 0.045221  
2001-11-29 09:11:42 51°24.731 2°55.922 18.753309 0.008162 0.045222  
2001-11-29 09:11:48 51°24.751 2°55.908 18.814905 0.008162 0.045221  
2001-11-29 09:11:53 51°24.768 2°55.895 18.745936 0.008162 0.045221  
2001-11-29 09:11:57 51°24.781 2°55.886 18.778514 0.008162 0.045221  
2001-11-29 09:12:03 51°24.802 2°55.872 18.751497 0.008162 0.045222  
2001-11-29 09:12:07 51°24.816 2°55.862 18.751497 0.008162 0.045222  
2001-11-29 09:12:13 51°24.836 2°55.848 18.745194 0.008162 0.045222  
2001-11-29 09:12:17 51°24.849 2°55.838 18.823793 0.008162 0.045222  
2001-11-29 09:12:23 51°24.87 2°55.823 18.741033 0.008162 0.045222  
2001-11-29 09:12:28 51°24.886 2°55.811 19.177647 0.008162 0.045222  
2001-11-29 09:12:33 51°24.904 2°55.799 18.768096 0.008162 0.045223  
2001-11-29 09:12:37 51°24.917 2°55.787 18.768096 0.008162 0.045223  
2001-11-29 09:12:42 51°24.934 2°55.776 18.742022 0.008162 0.045222  
2001-11-29 09:12:48 51°24.954 2°55.759 18.832517 0.008162 0.045222  
2001-11-29 09:12:53 51°24.97 2°55.748 18.750138 0.008162 0.045222  
2001-11-29 09:12:57 51°24.984 2°55.737 18.79066 0.008162 0.045222  
2001-11-29 09:13:02 51°25.001 2°55.724 18.775055 0.008162 0.045222  
2001-11-29 09:13:08 51°25.021 2°55.711 18.775055 0.008162 0.045222  
2001-11-29 09:13:13 51°25.038 2°55.697 18.794201 0.008162 0.045223  
2001-11-29 09:13:17 51°25.051 2°55.689 18.798646 0.008162 0.045223  
2001-11-29 09:13:22 51°25.068 2°55.678 18.720101 0.008162 0.045223  
2001-11-29 09:13:28 51°25.088 2°55.663 18.746925 0.008162 0.045223  
2001-11-29 09:13:33 51°25.106 2°55.653 18.696483 0.008162 0.045223  
2001-11-29 09:13:37 51°25.119 2°55.642 18.696483 0.008162 0.045223  
2001-11-29 09:13:43 51°25.139 2°55.63 18.7627 0.008162 0.045223  
2001-11-29 09:13:48 51°25.156 2°55.618 18.764471 0.008162 0.045223  
2001-11-29 09:13:53 51°25.173 2°55.608 18.809554 0.008162 0.045222  
2001-11-29 09:13:57 51°25.186 2°55.599 18.779379 0.008162 0.045223  
2001-11-29 09:14:01 51°25.199 2°55.59 18.764307 0.008162 0.045223  
2001-11-29 09:14:08 51°25.223 2°55.575 18.764307 0.008162 0.045223  
2001-11-29 09:14:13 51°25.24 2°55.565 18.798111 0.008162 0.045223  
2001-11-29 09:14:17 51°25.253 2°55.557 18.702749 0.008162 0.045223  
2001-11-29 09:14:23 51°25.273 2°55.543 18.757511 0.008063 0.044756  
2001-11-29 09:14:28 51°25.29 2°55.533 18.742105 0.008063 0.044756  
2001-11-29 09:14:33 51°25.307 2°55.522 18.772914 0.008063 0.044757  
2001-11-29 09:14:37 51°25.32 2°55.513 18.772914 0.008063 0.044757  
2001-11-29 09:14:43 51°25.34 2°55.501 18.746018 0.008063 0.044757  
2001-11-29 09:14:48 51°25.356 2°55.488 18.700194 0.008063 0.044756  
2001-11-29 09:14:53 51°25.373 2°55.479 18.769702 0.008063 0.044757  
2001-11-29 09:14:57 51°25.387 2°55.47 18.717381 0.008063 0.044757  
2001-11-29 09:15:02 51°25.403 2°55.459 18.720349 0.008063 0.044757  
2001-11-29 09:15:08 51°25.423 2°55.446 18.720349 0.008063 0.044757  
2001-11-29 09:15:13 51°25.439 2°55.432 18.733123 0.008063 0.044757  
2001-11-29 09:15:17 51°25.453 2°55.424 18.802392 0.008063 0.044757  
2001-11-29 09:15:21 51°25.466 2°55.413 18.756852 0.008063 0.044758  
2001-11-29 09:15:28 51°25.489 2°55.396 18.737943 0.008063 0.044758  
2001-11-29 09:15:33 51°25.505 2°55.382 18.786955 0.008063 0.044757  
2001-11-29 09:15:37 51°25.519 2°55.375 18.786955 0.008063 0.044757  
2001-11-29 09:15:42 51°25.535 2°55.359 18.697597 0.008063 0.044758  
2001-11-29 09:15:48 51°25.555 2°55.347 18.812188 0.008063 0.044757  
2001-11-29 09:15:53 51°25.57 2°55.333 18.741239 0.008063 0.044757  
2001-11-29 09:15:58 51°25.587 2°55.323 18.778061 0.008063 0.044758  
2001-11-29 09:16:03 51°25.603 2°55.308 18.778843 0.008063 0.044758  
2001-11-29 09:16:08 51°25.62 2°55.299 18.778843 0.008063 0.044758  
2001-11-29 09:16:13 51°25.636 2°55.285 18.732505 0.008063 0.044758  
2001-11-29 09:16:17 51°25.649 2°55.277 18.786584 0.008063 0.044758  
2001-11-29 09:16:23 51°25.669 2°55.262 18.737573 0.008063 0.044758  
2001-11-29 09:16:28 51°25.686 2°55.253 18.769661 0.008063 0.044758  
2001-11-29 09:16:33 51°25.703 2°55.241 18.728673 0.008063 0.044758  
2001-11-29 09:16:38 51°25.72 2°55.23 18.728673 0.008063 0.044758  
2001-11-29 09:16:43 51°25.737 2°55.219 18.69871 0.008063 0.044758  
2001-11-29 09:16:47 51°25.75 2°55.209 18.726489 0.008063 0.044758  
2001-11-29 09:16:53 51°25.771 2°55.197 18.723563 0.008063 0.044759  
2001-11-29 09:16:57 51°25.784 2°55.187 18.755657 0.008063 0.044759  
2001-11-29 09:17:03 51°25.805 2°55.176 18.718412 0.008063 0.044758  
2001-11-29 09:17:07 51°25.818 2°55.165 18.718412 0.008063 0.044758  
2001-11-29 09:17:13 51°25.839 2°55.156 18.824699 0.008063 0.044758  
2001-11-29 09:17:17 51°25.853 2°55.147 18.695576 0.008063 0.044758  
2001-11-29 09:17:23 51°25.873 2°55.135 18.722327 0.008063 0.044757  
2001-11-29 09:17:27 51°25.887 2°55.125 18.707284 0.008063 0.044758  
2001-11-29 09:17:33 51°25.907 2°55.113 18.689763 0.008063 0.044758  
2001-11-29 09:17:37 51°25.921 2°55.103 18.689763 0.008063 0.044758  
2001-11-29 09:17:43 51°25.941 2°55.089 18.720555 0.008063 0.044758  
2001-11-29 09:17:48 51°25.958 2°55.078 18.693556 0.008063 0.044758  
2001-11-29 09:17:53 51°25.975 2°55.066 18.68964 0.008063 0.044759  
2001-11-29 09:17:57 51°25.989 2°55.057 18.733823 0.008063 0.044759  
2001-11-29 09:18:03 51°26.009 2°55.044 18.708025 0.008063 0.044759  
2001-11-29 09:18:08 51°26.025 2°55.03 18.708025 0.008063 0.044759  
2001-11-29 09:18:13 51°26.043 2°55.02 18.693474 0.008063 0.04476  
2001-11-29 09:18:17 51°26.056 2°55.01 18.70176 0.008063 0.04476  
2001-11-29 09:18:23 51°26.076 2°54.997 18.779049 0.008063 0.04476  
2001-11-29 09:18:28 51°26.092 2°54.985 18.693103 0.008063 0.04476  
2001-11-29 09:18:32 51°26.106 2°54.975 18.697679 0.008063 0.044761  
2001-11-29 09:18:37 51°26.123 2°54.965 18.697679 0.008063 0.044761  
2001-11-29 09:18:43 51°26.143 2°54.951 18.696607 0.007965 0.044294  
2001-11-29 09:18:48 51°26.16 2°54.938 18.678631 0.007965 0.044299  
2001-11-29 09:18:53 51°26.178 2°54.929 18.73749 0.008063 0.044764  
2001-11-29 09:18:57 51°26.191 2°54.917 18.704275 0.007965 0.044297  
2001-11-29 09:19:01 51°26.205 2°54.909 18.702131 0.007965 0.044297  
2001-11-29 09:19:08 51°26.229 2°54.892 18.702131 0.007965 0.044297  
2001-11-29 09:19:13 51°26.246 2°54.881 18.704192 0.007965 0.044296  
2001-11-29 09:19:17 51°26.259 2°54.869 18.702172 0.007965 0.044296  
2001-11-29 09:19:23 51°26.28 2°54.856 18.693268 0.007965 0.044295  
2001-11-29 09:19:28 51°26.297 2°54.846 18.70716 0.007965 0.044296  
2001-11-29 09:19:33 51°26.314 2°54.832 18.786214 0.007965 0.044296  
2001-11-29 09:19:37 51°26.328 2°54.823 18.786214 0.007965 0.044296  
2001-11-29 09:19:43 51°26.348 2°54.809 18.721873 0.007965 0.044296  
2001-11-29 09:19:48 51°26.365 2°54.8 18.739303 0.007965 0.044296  
2001-11-29 09:19:53 51°26.382 2°54.788 18.725665 0.007965 0.044296  
2001-11-29 09:19:57 51°26.396 2°54.781 18.750879 0.007965 0.044296  
2001-11-29 09:20:01 51°26.41 2°54.773 18.681806 0.007965 0.044296  
2001-11-29 09:20:08 51°26.435 2°54.758 18.681806 0.007965 0.044296  
2001-11-29 09:20:13 51°26.452 2°54.749 18.820707 0.007965 0.044296  
2001-11-29 09:20:17 51°26.467 2°54.741 18.653431 0.007965 0.044296  
2001-11-29 09:20:22 51°26.484 2°54.729 18.702172 0.007965 0.044297  
2001-11-29 09:20:28 51°26.505 2°54.72 18.687826 0.007965 0.044297  
2001-11-29 09:20:33 51°26.522 2°54.707 18.701801 0.007965 0.044296  
2001-11-29 09:20:38 51°26.54 2°54.7 18.701801 0.007965 0.044296  
2001-11-29 09:20:43 51°26.557 2°54.687 18.727766 0.007965 0.044296  
2001-11-29 09:20:47 51°26.571 2°54.68 18.718412 0.007965 0.044297  
2001-11-29 09:20:53 51°26.592 2°54.666 18.72686 0.007965 0.044297  
2001-11-29 09:20:57 51°26.606 2°54.659 18.78012 0.007965 0.044297  
2001-11-29 09:21:03 51°26.627 2°54.645 18.709386 0.007965 0.044297  
2001-11-29 09:21:08 51°26.645 2°54.637 18.709386 0.007965 0.044297  
2001-11-29 09:21:13 51°26.663 2°54.624 18.722656 0.007965 0.044297  
2001-11-29 09:21:17 51°26.677 2°54.617 18.728425 0.007965 0.044297  
2001-11-29 09:21:23 51°26.697 2°54.602 18.700894 0.007965 0.044297  
2001-11-29 09:21:28 51°26.715 2°54.594 18.670589 0.007965 0.044297  
2001-11-29 09:21:33 51°26.732 2°54.58 18.732834 0.007965 0.044298  
2001-11-29 09:21:37 51°26.746 2°54.571 18.732834 0.007965 0.044298  
2001-11-29 09:21:43 51°26.767 2°54.558 18.685723 0.007965 0.044297  
2001-11-29 09:21:48 51°26.784 2°54.546 18.663991 0.007965 0.044297  
2001-11-29 09:21:53 51°26.802 2°54.536 18.670796 0.007965 0.044298  
2001-11-29 09:21:57 51°26.815 2°54.523 18.673064 0.007965 0.044298  
2001-11-29 09:22:03 51°26.837 2°54.511 18.664568 0.007965 0.044298  
2001-11-29 09:22:07 51°26.85 2°54.5 18.664568 0.007965 0.044298  
2001-11-29 09:22:13 51°26.871 2°54.487 18.763936 0.007965 0.044298  
2001-11-29 09:22:18 51°26.889 2°54.476 18.695205 0.007965 0.044298  
2001-11-29 09:22:23 51°26.906 2°54.465 18.676445 0.007965 0.044299  
2001-11-29 09:22:28 51°26.924 2°54.455 18.676239 0.007965 0.044298  
2001-11-29 09:22:33 51°26.941 2°54.445 18.691206 0.007965 0.044298  
2001-11-29 09:22:37 51°26.956 2°54.438 18.691206 0.007965 0.044298  
2001-11-29 09:22:43 51°26.976 2°54.424 18.65306 0.007866 0.043833  
2001-11-29 09:22:48 51°26.994 2°54.415 18.670796 0.007965 0.044299  
2001-11-29 09:22:53 51°27.012 2°54.403 18.671373 0.007965 0.044299  
2001-11-29 09:22:58 51°27.03 2°54.393 18.680816 0.007866 0.043833  
2001-11-29 09:23:03 51°27.047 2°54.382 18.65966 0.007866 0.043833  
2001-11-29 09:23:07 51°27.062 2°54.375 18.65966 0.007866 0.043833  
2001-11-29 09:23:13 51°27.082 2°54.361 18.697308 0.007965 0.044299  
2001-11-29 09:23:17 51°27.097 2°54.354 18.70749 0.007866 0.043833  
2001-11-29 09:23:23 51°27.117 2°54.338 18.694257 0.007866 0.043833  
2001-11-29 09:23:27 51°27.132 2°54.331 18.665475 0.007866 0.043833  
2001-11-29 09:23:33 51°27.152 2°54.314 20.784582 0.007866 0.043832  
2001-11-29 09:23:38 51°27.169 2°54.304 20.784582 0.007866 0.043832  
2001-11-29 09:23:43 51°27.186 2°54.29 20.607244 0.007866 0.043835  
2001-11-29 09:23:47 51°27.2 2°54.282 20.20545 0.007866 0.043845  
2001-11-29 09:23:53 51°27.221 2°54.267 19.884367 0.007866 0.043843  
2001-11-29 09:23:58 51°27.238 2°54.256 20.677095 0.007866 0.04384  
2001-11-29 09:24:03 51°27.255 2°54.243 19.805166 0.007866 0.04384  
2001-11-29 09:24:08 51°27.272 2°54.23 19.805166 0.007866 0.04384  
2001-11-29 09:24:13 51°27.289 2°54.216 19.832103 0.007866 0.043837  
2001-11-29 09:24:17 51°27.302 2°54.205 20.410556 0.007866 0.043838  
2001-11-29 09:24:23 51°27.322 2°54.188 20.470191 0.007866 0.043837  
2001-11-29 09:24:28 51°27.338 2°54.175 19.881449 0.007866 0.043837  
2001-11-29 09:24:33 51°27.354 2°54.16 20.0721 0.007866 0.043837  
2001-11-29 09:24:38 51°27.371 2°54.146 20.0721 0.007866 0.043837  
2001-11-29 09:24:43 51°27.387 2°54.133 20.048246 0.007866 0.043836  
2001-11-29 09:24:48 51°27.404 2°54.12 19.851002 0.007866 0.043838  
2001-11-29 09:24:53 51°27.421 2°54.107 20.469829 0.007866 0.043837  
2001-11-29 09:24:57 51°27.433 2°54.095 20.157664 0.007866 0.043838  
2001-11-29 09:25:03 51°27.453 2°54.078 20.264614 0.007866 0.043838  
2001-11-29 09:25:08 51°27.468 2°54.063 20.264614 0.007866 0.043838  
2001-11-29 09:25:13 51°27.485 2°54.051 19.916866 0.007866 0.043838  
2001-11-29 09:25:18 51°27.501 2°54.036 20.123176 0.007866 0.043838  
2001-11-29 09:25:23 51°27.518 2°54.022 20.856736 0.007866 0.043837  
2001-11-29 09:25:28 51°27.535 2°54.009 19.826343 0.007866 0.043838  
2001-11-29 09:25:33 51°27.551 2°53.994 20.35542 0.007866 0.043838  
2001-11-29 09:25:38 51°27.568 2°53.982 20.35542 0.007866 0.043838  
2001-11-29 09:25:43 51°27.584 2°53.969 20.668878 0.007866 0.043837  
2001-11-29 09:25:48 51°27.601 2°53.958 20.182651 0.007866 0.043838  
2001-11-29 09:25:53 51°27.618 2°53.945 19.642549 0.007866 0.043835  
2001-11-29 09:25:57 51°27.63 2°53.934 20.2603 0.007866 0.043831  
2001-11-29 09:26:02 51°27.647 2°53.922 20.132506 0.007866 0.043833  
2001-11-29 09:26:08 51°27.667 2°53.908 20.132506 0.007866 0.043833  
2001-11-29 09:26:13 51°27.683 2°53.895 20.308782 0.007866 0.043833  
2001-11-29 09:26:17 51°27.697 2°53.886 20.231912 0.007866 0.043834  
2001-11-29 09:26:23 51°27.716 2°53.871 19.959148 0.007866 0.043836  
2001-11-29 09:26:28 51°27.733 2°53.86 20.216786 0.007866 0.043835  
2001-11-29 09:26:33 51°27.749 2°53.847 20.614225 0.007866 0.043837  
2001-11-29 09:26:37 51°27.761 2°53.835 20.614225 0.007866 0.043837  
2001-11-29 09:26:42 51°27.779 2°53.825 21.085908 0.007866 0.04384  
2001-11-29 09:26:48 51°27.796 2°53.805 20.036721 0.007866 0.043844  
2001-11-29 09:26:53 51°27.812 2°53.791 20.447034 0.007866 0.043843  
2001-11-29 09:26:58 51°27.827 2°53.775 20.217674 0.007866 0.043842  
2001-11-29 09:27:03 51°27.843 2°53.762 20.291578 0.007768 0.043375  
2001-11-29 09:27:08 51°27.859 2°53.746 20.291578 0.007768 0.043375  
2001-11-29 09:27:13 51°27.874 2°53.731 20.222716 0.007866 0.04384  
2001-11-29 09:27:17 51°27.887 2°53.72 20.274328 0.007768 0.043373  
2001-11-29 09:27:21 51°27.9 2°53.707 19.863288 0.007768 0.043373  
2001-11-29 09:27:28 51°27.923 2°53.688 20.188059 0.007768 0.043372  
2001-11-29 09:27:33 51°27.939 2°53.675 20.317444 0.007768 0.043373  
2001-11-29 09:27:37 51°27.954 2°53.668 20.317444 0.007768 0.043373  
2001-11-29 09:27:43 51°27.974 2°53.652 19.735948 0.007768 0.043374  
2001-11-29 09:27:47 51°27.987 2°53.641 19.783332 0.007768 0.043374  
2001-11-29 09:27:53 51°28.007 2°53.628 19.843622 0.007768 0.043374  
2001-11-29 09:27:57 51°28.02 2°53.617 19.845609 0.007768 0.043373  
2001-11-29 09:28:03 51°28.041 2°53.605 20.58016 0.007768 0.043373  
2001-11-29 09:28:08 51°28.057 2°53.592 20.58016 0.007768 0.043373  
2001-11-29 09:28:13 51°28.074 2°53.582 20.628503 0.007768 0.043373  
2001-11-29 09:28:18 51°28.09 2°53.567 20.295809 0.007768 0.043373  
2001-11-29 09:28:23 51°28.107 2°53.556 19.712915 0.007768 0.043374  
2001-11-29 09:28:28 51°28.124 2°53.544 19.320755 0.007768 0.043374  
2001-11-29 09:28:33 51°28.14 2°53.531 19.721934 0.007768 0.043374  
2001-11-29 09:28:38 51°28.157 2°53.518 19.721934 0.007768 0.043374  
2001-11-29 09:28:43 51°28.172 2°53.504 19.535543 0.007768 0.043373  
2001-11-29 09:28:48 51°28.189 2°53.492 19.919945 0.007768 0.043374  
2001-11-29 09:28:53 51°28.205 2°53.479 19.397649 0.007768 0.043373  
2001-11-29 09:28:57 51°28.218 2°53.468 19.615375 0.007768 0.043373  
2001-11-29 09:29:03 51°28.237 2°53.45 19.635349 0.007768 0.043373  
2001-11-29 09:29:08 51°28.254 2°53.438 19.635349 0.007768 0.043373  
2001-11-29 09:29:13 51°28.27 2°53.423 19.948418 0.007768 0.043374  
2001-11-29 09:29:17 51°28.283 2°53.414 20.177807 0.007768 0.043374  
2001-11-29 09:29:23 51°28.303 2°53.398 20.084387 0.007768 0.043373  
2001-11-29 09:29:28 51°28.32 2°53.385 20.182449 0.007768 0.043374  
2001-11-29 09:29:33 51°28.337 2°53.372 20.166142 0.007768 0.043375  
2001-11-29 09:29:37 51°28.349 2°53.359 20.166142 0.007768 0.043375  
2001-11-29 09:29:43 51°28.369 2°53.344 20.321472 0.007768 0.043375  
2001-11-29 09:29:48 51°28.385 2°53.328 20.293149 0.007768 0.043376  
2001-11-29 09:29:53 51°28.401 2°53.315 20.547364 0.007768 0.043376  
2001-11-29 09:29:58 51°28.418 2°53.3 20.533028 0.007768 0.043375  
2001-11-29 09:30:03 51°28.434 2°53.286 20.282913 0.007768 0.043375  
2001-11-29 09:30:08 51°28.45 2°53.272 20.282913 0.007768 0.043375  
2001-11-29 09:30:13 51°28.467 2°53.259 20.2946 0.007768 0.043375  
2001-11-29 09:30:18 51°28.483 2°53.245 20.180834 0.007768 0.043374  
2001-11-29 09:30:23 51°28.5 2°53.234 20.46794 0.007768 0.043376  
2001-11-29 09:30:28 51°28.516 2°53.219 20.023858 0.007768 0.043376  
2001-11-29 09:30:33 51°28.533 2°53.209 20.243043 0.007768 0.043376  
2001-11-29 09:30:38 51°28.55 2°53.196 20.243043 0.007768 0.043376  
2001-11-29 09:30:43 51°28.566 2°53.184 20.385368 0.007768 0.043376  
2001-11-29 09:30:48 51°28.583 2°53.171 20.058476 0.007768 0.043376  
2001-11-29 09:30:53 51°28.599 2°53.159 20.015282 0.007768 0.043376  
2001-11-29 09:30:57 51°28.613 2°53.152 19.916542 0.007768 0.043377  
2001-11-29 09:31:03 51°28.632 2°53.133 20.035265 0.007768 0.043376  
2001-11-29 09:31:08 51°28.649 2°53.123 20.035265 0.007768 0.043376  
2001-11-29 09:31:13 51°28.665 2°53.107 20.546802 0.007669 0.042911  
2001-11-29 09:31:17 51°28.678 2°53.097 20.677255 0.007669 0.042911  
2001-11-29 09:31:23 51°28.698 2°53.082 20.612179 0.007768 0.043377  
2001-11-29 09:31:28 51°28.714 2°53.069 20.46589 0.007768 0.043376  
2001-11-29 09:31:33 51°28.731 2°53.057 20.25651 0.007768 0.043377  
2001-11-29 09:31:38 51°28.746 2°53.042 20.25651 0.007768 0.043377  
2001-11-29 09:31:43 51°28.764 2°53.031 20.519252 0.007768 0.043377  
2001-11-29 09:31:48 51°28.779 2°53.015 19.927034 0.007669 0.042911  
2001-11-29 09:31:53 51°28.796 2°53.005 20.088105 0.007669 0.042911  
2001-11-29 09:31:58 51°28.811 2°52.988 20.078324 0.007669 0.042911  
2001-11-29 09:32:03 51°28.828 2°52.976 19.608417 0.007768 0.043377  
2001-11-29 09:32:08 51°28.843 2°52.959 19.608417 0.007768 0.043377  
2001-11-29 09:32:13 51°28.859 2°52.945 19.958824 0.007669 0.042911  
2001-11-29 09:32:17 51°28.872 2°52.933 19.857206 0.007669 0.04291  
2001-11-29 09:32:23 51°28.892 2°52.917 19.643403 0.007669 0.042911  
2001-11-29 09:32:27 51°28.904 2°52.906 19.893 0.007669 0.042912  
2001-11-29 09:32:33 51°28.924 2°52.89 19.843095 0.007669 0.042911  
2001-11-29 09:32:38 51°28.94 2°52.877 19.843095 0.007669 0.042911  
2001-11-29 09:32:43 51°28.957 2°52.864 20.101239 0.007669 0.042911  
2001-11-29 09:32:48 51°28.973 2°52.852 20.045334 0.007669 0.042911  
2001-11-29 09:32:53 51°28.99 2°52.839 19.761126 0.007669 0.042912  
2001-11-29 09:32:57 51°29.004 2°52.83 19.879017 0.007669 0.042912  
2001-11-29 09:33:03 51°29.024 2°52.814 19.951941 0.007669 0.042912  
2001-11-29 09:33:07 51°29.037 2°52.803 19.951941 0.007669 0.042912  
2001-11-29 09:33:13 51°29.056 2°52.787 19.913138 0.007669 0.042912  
2001-11-29 09:33:18 51°29.073 2°52.775 19.917595 0.007669 0.042912  
2001-11-29 09:33:23 51°29.089 2°52.761 19.924279 0.007669 0.042912  
2001-11-29 09:33:28 51°29.106 2°52.748 20.107178 0.007669 0.042912  
2001-11-29 09:33:33 51°29.122 2°52.736 20.32268 0.007669 0.042913  
2001-11-29 09:33:37 51°29.135 2°52.724 20.32268 0.007669 0.042913  
2001-11-29 09:33:43 51°29.156 2°52.709 20.432397 0.007669 0.042912  
2001-11-29 09:33:47 51°29.168 2°52.696 20.03033 0.007669 0.042913  
2001-11-29 09:33:53 51°29.187 2°52.679 19.660563 0.007669 0.042914  
2001-11-29 09:33:58 51°29.202 2°52.664 19.736882 0.007669 0.042913  
2001-11-29 09:34:03 51°29.218 2°52.649 19.970605 0.007669 0.042913  
2001-11-29 09:34:08 51°29.234 2°52.634 19.970605 0.007669 0.042913  
2001-11-29 09:34:13 51°29.249 2°52.616 19.594378 0.007669 0.042914  
2001-11-29 09:34:17 51°29.263 2°52.606 20.07695 0.007669 0.042915  
2001-11-29 09:34:23 51°29.28 2°52.584 19.26394 0.007669 0.042914  
2001-11-29 09:34:28 51°29.296 2°52.569 19.328273 0.007669 0.042915  
2001-11-29 09:34:33 51°29.311 2°52.551 19.359356 0.007669 0.042913  
2001-11-29 09:34:37 51°29.323 2°52.538 19.359356 0.007669 0.042913  
2001-11-29 09:34:41 51°29.335 2°52.524 19.579073 0.007669 0.042915  
2001-11-29 09:34:48 51°29.354 2°52.498 19.689101 0.007669 0.042916  
2001-11-29 09:34:53 51°29.367 2°52.478 19.537498 0.007669 0.042915  
2001-11-29 09:34:57 51°29.377 2°52.462 19.49003 0.007669 0.042916  
2001-11-29 09:35:03 51°29.39 2°52.434 19.120715 0.007669 0.042915  
2001-11-29 09:35:08 51°29.399 2°52.41 19.120715 0.007669 0.042915  
2001-11-29 09:35:13 51°29.405 2°52.385 19.302857 0.007669 0.042915  
2001-11-29 09:35:17 51°29.41 2°52.365 19.214239 0.007669 0.042916  
2001-11-29 09:35:23 51°29.414 2°52.334 20.360895 0.007669 0.042917  
2001-11-29 09:35:28 51°29.415 2°52.308 19.939873 0.007669 0.042919  
2001-11-29 09:35:33 51°29.414 2°52.284 19.647104 0.007669 0.042917  
2001-11-29 09:35:38 51°29.412 2°52.259 19.647104 0.007669 0.042917  
2001-11-29 09:35:43 51°29.409 2°52.237 20.249656 0.007669 0.042915  
2001-11-29 09:35:48 51°29.404 2°52.218 19.924279 0.007669 0.042915  
2001-11-29 09:35:53 51°29.4 2°52.202 19.93477 0.007669 0.042916  
2001-11-29 09:35:57 51°29.396 2°52.19 19.77704 0.007669 0.042917  
2001-11-29 09:36:03 51°29.391 2°52.172 20.326346 0.00757 0.042451  
2001-11-29 09:36:08 51°29.386 2°52.158 20.326346 0.00757 0.042451  
2001-11-29 09:36:13 51°29.382 2°52.143 19.880476 0.00757 0.042452  
2001-11-29 09:36:17 51°29.379 2°52.131 19.637017 0.00757 0.042452  
2001-11-29 09:36:23 51°29.375 2°52.114 20.208799 0.007669 0.042917  
2001-11-29 09:36:28 51°29.371 2°52.099 20.342213 0.00757 0.042452  
2001-11-29 09:36:33 51°29.367 2°52.083 19.833239 0.00757 0.042453  
2001-11-29 09:36:37 51°29.364 2°52.071 19.833239 0.00757 0.042453  
2001-11-29 09:36:43 51°29.36 2°52.053 19.731277 0.00757 0.042452  
2001-11-29 09:36:48 51°29.356 2°52.037 19.696051 0.00757 0.042453  
2001-11-29 09:36:53 51°29.352 2°52.02 19.89993 0.00757 0.042453  
2001-11-29 09:36:58 51°29.348 2°52.003 19.953682 0.00757 0.042453  
2001-11-29 09:37:03 51°29.343 2°51.987 19.841878 0.00757 0.042454  
2001-11-29 09:37:08 51°29.339 2°51.969 19.841878 0.00757 0.042454  
2001-11-29 09:37:13 51°29.334 2°51.952 20.203029 0.00757 0.042452  
2001-11-29 09:37:17 51°29.331 2°51.937 19.96097 0.00757 0.042452  
2001-11-29 09:37:23 51°29.325 2°51.915 20.035871 0.00757 0.042452  
2001-11-29 09:37:28 51°29.32 2°51.897 19.824802 0.00757 0.042453  
2001-11-29 09:37:33 51°29.316 2°51.879 19.83981 0.00757 0.042453  
2001-11-29 09:37:39 51°29.31 2°51.859 19.83981 0.00757 0.042453  
2001-11-29 09:37:43 51°29.307 2°51.845 19.903009 0.00757 0.042454  
2001-11-29 09:37:48 51°29.301 2°51.828 19.680078 0.00757 0.042453  
2001-11-29 09:37:53 51°29.297 2°51.81 19.700074 0.00757 0.042454  
2001-11-29 09:37:57 51°29.293 2°51.795 20.097319 0.00757 0.042454  
2001-11-29 09:38:03 51°29.287 2°51.773 19.547029 0.00757 0.042454  
2001-11-29 09:38:08 51°29.283 2°51.755 19.547029 0.00757 0.042454  
2001-11-29 09:38:13 51°29.278 2°51.736 20.101481 0.00757 0.042454  
2001-11-29 09:38:17 51°29.275 2°51.722 19.909735 0.00757 0.042455  
2001-11-29 09:38:21 51°29.271 2°51.707 19.741959 0.00757 0.042454  
2001-11-29 09:38:28 51°29.265 2°51.681 20.167837 0.00757 0.042455  
2001-11-29 09:38:33 51°29.26 2°51.663 19.484446 0.00757 0.042456  
2001-11-29 09:38:37 51°29.257 2°51.648 19.484446 0.00757 0.042456  
2001-11-29 09:38:43 51°29.251 2°51.625 20.331743 0.00757 0.042455  
2001-11-29 09:38:47 51°29.247 2°51.61 20.051966 0.00757 0.042455  
2001-11-29 09:38:53 51°29.241 2°51.588 20.209928 0.00757 0.042455  
2001-11-29 09:38:57 51°29.238 2°51.573 20.096753 0.00757 0.042456  
2001-11-29 09:39:03 51°29.232 2°51.55 20.001081 0.00757 0.042456  
2001-11-29 09:39:09 51°29.226 2°51.53 20.001081 0.00757 0.042456  
2001-11-29 09:39:13 51°29.222 2°51.515 20.333676 0.00757 0.042457  
2001-11-29 09:39:18 51°29.217 2°51.495 19.896323 0.00757 0.042456  
2001-11-29 09:39:23 51°29.212 2°51.476 20.085074 0.00757 0.042457  
2001-11-29 09:39:28 51°29.207 2°51.456 19.518515 0.00757 0.042457  
2001-11-29 09:39:33 51°29.201 2°51.437 19.566331 0.00757 0.042456  
2001-11-29 09:39:38 51°29.197 2°51.416 19.566331 0.00757 0.042456  
2001-11-29 09:39:43 51°29.191 2°51.398 19.304165 0.00757 0.042456  
2001-11-29 09:39:48 51°29.187 2°51.378 19.670565 0.007472 0.041991  
2001-11-29 09:39:53 51°29.181 2°51.359 19.371034 0.00757 0.042457  
2001-11-29 09:39:58 51°29.176 2°51.339 19.537947 0.007472 0.041992  
2001-11-29 09:40:03 51°29.17 2°51.321 19.625953 0.007472 0.041992  
2001-11-29 09:40:07 51°29.166 2°51.304 19.625953 0.007472 0.041992  
2001-11-29 09:40:13 51°29.16 2°51.281 19.164135 0.007472 0.041992  
2001-11-29 09:40:18 51°29.154 2°51.261 19.70426 0.007472 0.041992  
2001-11-29 09:40:23 51°29.149 2°51.241 20.204845 0.007472 0.041993  
2001-11-29 09:40:28 51°29.144 2°51.222 19.78597 0.007472 0.041992  
2001-11-29 09:40:33 51°29.139 2°51.203 19.938698 0.007472 0.041991  
2001-11-29 09:40:38 51°29.135 2°51.185 19.938698 0.007472 0.041991  
2001-11-29 09:40:43 51°29.13 2°51.167 19.998046 0.007472 0.041995  
2001-11-29 09:40:48 51°29.126 2°51.15 20.4804 0.007472 0.041994  
2001-11-29 09:40:53 51°29.121 2°51.131 19.936592 0.007472 0.041994  
2001-11-29 09:40:58 51°29.117 2°51.114 20.081113 0.007472 0.041994  
2001-11-29 09:41:03 51°29.113 2°51.096 19.978013 0.007472 0.041994  
2001-11-29 09:41:08 51°29.108 2°51.08 19.978013 0.007472 0.041994  
2001-11-29 09:41:13 51°29.103 2°51.063 19.643321 0.007472 0.041995  
2001-11-29 09:41:18 51°29.099 2°51.046 19.69093 0.007472 0.041994  
2001-11-29 09:41:23 51°29.094 2°51.029 19.378627 0.007472 0.041995  
2001-11-29 09:41:28 51°29.09 2°51.012 19.886313 0.007472 0.041994  
2001-11-29 09:41:33 51°29.086 2°50.995 19.244145 0.007472 0.041995  
2001-11-29 09:41:37 51°29.082 2°50.981 19.244145 0.007472 0.041995  
2001-11-29 09:41:41 51°29.078 2°50.966 20.12564 0.007472 0.041994  
2001-11-29 09:41:48 51°29.072 2°50.942 19.513218 0.007472 0.041994  
2001-11-29 09:41:53 51°29.067 2°50.923 19.489663 0.007472 0.041994  
2001-11-29 09:41:57 51°29.063 2°50.908 19.639539 0.007472 0.041996  
2001-11-29 09:42:03 51°29.057 2°50.885 19.523485 0.007472 0.041994  
2001-11-29 09:42:08 51°29.052 2°50.866 19.523485 0.007472 0.041994  
2001-11-29 09:42:13 51°29.047 2°50.846 19.871396 0.007472 0.041995  
2001-11-29 09:42:18 51°29.042 2°50.827 19.541042 0.007472 0.041995  
2001-11-29 09:42:23 51°29.037 2°50.808 19.628556 0.007472 0.041994  
2001-11-29 09:42:28 51°29.032 2°50.789 20.02576 0.007472 0.041995  
2001-11-29 09:42:33 51°29.027 2°50.77 19.636285 0.007472 0.041995  
2001-11-29 09:42:37 51°29.023 2°50.754 19.636285 0.007472 0.041995  
2001-11-29 09:42:43 51°29.016 2°50.731 19.428456 0.007472 0.041996  
2001-11-29 09:42:48 51°29.011 2°50.711 19.664345 0.007472 0.041996  
2001-11-29 09:42:53 51°29.005 2°50.693 20.040724 0.007472 0.041996  
2001-11-29 09:42:58 51°29.001 2°50.676 19.520633 0.007472 0.041995  
2001-11-29 09:43:03 51°28.996 2°50.659 19.916866 0.007472 0.041997  
2001-11-29 09:43:08 51°28.993 2°50.641 19.916866 0.007472 0.041997  
2001-11-29 09:43:13 51°28.988 2°50.622 19.893891 0.007472 0.041997  
2001-11-29 09:43:17 51°28.984 2°50.607 20.135616 0.007472 0.041998  
2001-11-29 09:43:21 51°28.981 2°50.592 19.652228 0.007472 0.041997  
2001-11-29 09:43:28 51°28.975 2°50.566 19.846298 0.007373 0.041532  
2001-11-29 09:43:33 51°28.97 2°50.547 19.845447 0.007373 0.041532  
2001-11-29 09:43:38 51°28.966 2°50.529 19.845447 0.007373 0.041532  
2001-11-29 09:43:43 51°28.962 2°50.51 19.822976 0.007472 0.041997  
2001-11-29 09:43:48 51°28.958 2°50.491 19.79222 0.007373 0.041533  
2001-11-29 09:43:53 51°28.953 2°50.472 19.946636 0.007373 0.041533  
2001-11-29 09:43:57 51°28.95 2°50.456 19.490886 0.007373 0.041533  
2001-11-29 09:44:03 51°28.944 2°50.433 20.214406 0.007373 0.041533  
2001-11-29 09:44:08 51°28.939 2°50.413 20.214406 0.007373 0.041533  
2001-11-29 09:44:13 51°28.935 2°50.394 20.482972 0.007373 0.041532  
2001-11-29 09:44:19 51°28.93 2°50.372 20.527406 0.007373 0.041533  
2001-11-29 09:44:23 51°28.926 2°50.358 19.779922 0.007373 0.041534  
2001-11-29 09:44:28 51°28.922 2°50.34 20.3809 0.007373 0.041534  
2001-11-29 09:44:33 51°28.918 2°50.322 19.664141 0.007373 0.041534  
2001-11-29 09:44:38 51°28.914 2°50.304 19.664141 0.007373 0.041534  
2001-11-29 09:44:43 51°28.91 2°50.286 19.710639 0.007373 0.041534  
2001-11-29 09:44:48 51°28.906 2°50.267 19.639132 0.007373 0.041535  
2001-11-29 09:44:53 51°28.902 2°50.249 19.76953 0.007373 0.041534  
2001-11-29 09:44:58 51°28.898 2°50.23 19.35907 0.007373 0.041535  
2001-11-29 09:45:03 51°28.893 2°50.212 19.713443 0.007373 0.041534  
2001-11-29 09:45:08 51°28.889 2°50.192 19.713443 0.007373 0.041534  
2001-11-29 09:45:13 51°28.885 2°50.173 19.472868 0.007373 0.041534  
2001-11-29 09:45:18 51°28.88 2°50.155 19.11174 0.007373 0.041535  
2001-11-29 09:45:23 51°28.876 2°50.136 19.11506 0.007373 0.041534  
2001-11-29 09:45:28 51°28.871 2°50.116 19.197664 0.007373 0.041535  
2001-11-29 09:45:33 51°28.866 2°50.096 19.066771 0.007373 0.041536  
2001-11-29 09:45:37 51°28.862 2°50.08 19.066771 0.007373 0.041536  
2001-11-29 09:45:43 51°28.856 2°50.056 19.624244 0.007373 0.041535  
2001-11-29 09:45:47 51°28.853 2°50.04 19.37332 0.007373 0.041535  
2001-11-29 09:45:53 51°28.847 2°50.015 19.434575 0.007373 0.041536  
2001-11-29 09:45:57 51°28.844 2°49.999 19.648486 0.007373 0.041535  
2001-11-29 09:46:03 51°28.838 2°49.976 19.501075 0.007373 0.041536  
2001-11-29 09:46:08 51°28.834 2°49.957 19.501075 0.007373 0.041536  
2001-11-29 09:46:13 51°28.83 2°49.938 20.082568 0.007373 0.041536  
2001-11-29 09:46:18 51°28.825 2°49.92 19.814741 0.007373 0.041537  
2001-11-29 09:46:23 51°28.821 2°49.902 20.042787 0.007373 0.041538  
2001-11-29 09:46:28 51°28.818 2°49.884 20.125438 0.007373 0.041537  
2001-11-29 09:46:33 51°28.813 2°49.865 20.094571 0.007373 0.041538  
2001-11-29 09:46:38 51°28.809 2°49.846 20.094571 0.007373 0.041538  
2001-11-29 09:46:43 51°28.805 2°49.828 19.52373 0.007373 0.041537  
2001-11-29 09:46:48 51°28.801 2°49.809 20.071049 0.007373 0.041537  
2001-11-29 09:46:53 51°28.797 2°49.791 19.953358 0.007373 0.041537  
2001-11-29 09:46:58 51°28.793 2°49.772 19.845893 0.007373 0.041538  
2001-11-29 09:47:03 51°28.789 2°49.754 19.955423 0.007373 0.041537  
2001-11-29 09:47:08 51°28.785 2°49.736 19.955423 0.007373 0.041537  
2001-11-29 09:47:13 51°28.781 2°49.719 20.245382 0.007373 0.041538  
2001-11-29 09:47:18 51°28.777 2°49.702 20.308621 0.007373 0.041539  
2001-11-29 09:47:23 51°28.773 2°49.684 20.010347 0.007373 0.041539  
2001-11-29 09:47:28 51°28.77 2°49.666 19.789988 0.007373 0.041539  
2001-11-29 09:47:33 51°28.766 2°49.649 19.957447 0.007373 0.041539  
2001-11-29 09:47:37 51°28.763 2°49.634 19.957447 0.007373 0.041539  
2001-11-29 09:47:43 51°28.758 2°49.613 20.304592 0.007373 0.041539  
2001-11-29 09:47:49 51°28.754 2°49.591 20.971015 0.007373 0.04154  
2001-11-29 09:47:53 51°28.751 2°49.577 19.751787 0.007373 0.041539  
2001-11-29 09:47:58 51°28.748 2°49.56 19.695401 0.007373 0.041539  
2001-11-29 09:48:03 51°28.744 2°49.541 19.247745 0.007373 0.041539  
2001-11-29 09:48:08 51°28.74 2°49.523 19.247745 0.007373 0.041539  
2001-11-29 09:48:13 51°28.736 2°49.505 19.219763 0.007275 0.041075  
2001-11-29 09:48:18 51°28.732 2°49.486 19.678411 0.007275 0.041075  
2001-11-29 09:48:23 51°28.728 2°49.47 19.655806 0.007275 0.041076  
2001-11-29 09:48:28 51°28.724 2°49.454 19.475273 0.007275 0.041077  
2001-11-29 09:48:33 51°28.72 2°49.437 19.502909 0.007275 0.041076  
2001-11-29 09:48:38 51°28.717 2°49.421 19.502909 0.007275 0.041076  
2001-11-29 09:48:43 51°28.713 2°49.407 19.398261 0.007275 0.041077  
2001-11-29 09:48:48 51°28.71 2°49.393 19.672232 0.007275 0.041077  
2001-11-29 09:48:53 51°28.707 2°49.379 19.22005 0.007275 0.041079  
2001-11-29 09:48:58 51°28.704 2°49.364 19.083827 0.007275 0.041078  
2001-11-29 09:49:03 51°28.701 2°49.35 19.353475 0.007275 0.041078  
2001-11-29 09:49:08 51°28.698 2°49.333 19.353475 0.007275 0.041078  
2001-11-29 09:49:13 51°28.694 2°49.317 19.219149 0.007275 0.041077  
2001-11-29 09:49:18 51°28.69 2°49.302 19.481511 0.007275 0.041078  
2001-11-29 09:49:23 51°28.687 2°49.284 19.485709 0.007275 0.041078  
2001-11-29 09:49:28 51°28.683 2°49.266 19.416502 0.007275 0.041078  
2001-11-29 09:49:33 51°28.68 2°49.248 19.549228 0.007275 0.041077  
2001-11-29 09:49:37 51°28.677 2°49.234 19.549228 0.007275 0.041077  
2001-11-29 09:49:43 51°28.672 2°49.213 19.651048 0.007275 0.041078  
2001-11-29 09:49:48 51°28.669 2°49.196 19.109118 0.007275 0.041078  
2001-11-29 09:49:53 51°28.665 2°49.178 19.571379 0.007275 0.041079  
2001-11-29 09:49:59 51°28.661 2°49.158 19.304083 0.007275 0.041078  
2001-11-29 09:50:03 51°28.659 2°49.144 20.014675 0.007275 0.041079  
2001-11-29 09:50:08 51°28.655 2°49.127 20.014675 0.007275 0.041079  
2001-11-29 09:50:13 51°28.651 2°49.108 19.520104 0.007275 0.041079  
2001-11-29 09:50:18 51°28.647 2°49.089 19.620461 0.007275 0.041079  
2001-11-29 09:50:23 51°28.643 2°49.071 19.396751 0.007275 0.041079  
2001-11-29 09:50:28 51°28.639 2°49.052 19.659832 0.007275 0.041079  
2001-11-29 09:50:33 51°28.633 2°49.035 18.912415 0.007275 0.04108  
2001-11-29 09:50:38 51°28.628 2°49.018 18.912415 0.007275 0.04108  
2001-11-29 09:50:43 51°28.622 2°49.002 19.994364 0.007275 0.041081  
2001-11-29 09:50:48 51°28.615 2°48.987 19.483712 0.007275 0.041081  
2001-11-29 09:50:53 51°28.607 2°48.972 19.941169 0.007275 0.041081  
2001-11-29 09:50:57 51°28.601 2°48.962 19.415972 0.007275 0.041081  
2001-11-29 09:51:01 51°28.593 2°48.952 19.512811 0.007275 0.041082  
2001-11-29 09:51:08 51°28.58 2°48.935 19.512811 0.007275 0.041082  
2001-11-29 09:51:13 51°28.57 2°48.924 19.590511 0.007275 0.041081  
2001-11-29 09:51:17 51°28.562 2°48.917 19.670809 0.007275 0.041082  
2001-11-29 09:51:23 51°28.548 2°48.908 19.701171 0.007275 0.041081  
2001-11-29 09:51:28 51°28.536 2°48.903 19.804516 0.007275 0.041081  
2001-11-29 09:51:33 51°28.524 2°48.898 19.306699 0.007275 0.041082  
2001-11-29 09:51:37 51°28.514 2°48.895 19.306699 0.007275 0.041082  
2001-11-29 09:51:43 51°28.499 2°48.892 19.615579 0.007275 0.041082  
2001-11-29 09:51:48 51°28.486 2°48.892 18.943026 0.007275 0.041083  
2001-11-29 09:51:53 51°28.473 2°48.893 19.533425 0.007275 0.041082  
2001-11-29 09:51:57 51°28.462 2°48.893 19.412177 0.007275 0.041084  
2001-11-29 09:52:01 51°28.452 2°48.896 19.472134 0.007275 0.041083  
2001-11-29 09:52:08 51°28.433 2°48.899 19.472134 0.007275 0.041083  
2001-11-29 09:52:13 51°28.42 2°48.902 19.296154 0.007275 0.041082  
2001-11-29 09:52:17 51°28.409 2°48.904 19.536684 0.007275 0.041082  
2001-11-29 09:52:23 51°28.392 2°48.909 19.443997 0.007275 0.041083  
2001-11-29 09:52:28 51°28.377 2°48.913 19.715109 0.007275 0.041081  
2001-11-29 09:52:33 51°28.362 2°48.917 19.249585 0.007275 0.041081  
2001-11-29 09:52:37 51°28.35 2°48.921 19.249585 0.007275 0.041081  
2001-11-29 09:52:43 51°28.331 2°48.923 19.557536 0.007275 0.04108  
2001-11-29 09:52:48 51°28.316 2°48.928 19.719049 0.007275 0.041079  
2001-11-29 09:52:53 51°28.3 2°48.931 19.590837 0.007275 0.041081  
2001-11-29 09:52:57 51°28.287 2°48.933 20.019449 0.007275 0.041081  
2001-11-29 09:53:03 51°28.268 2°48.938 19.44257 0.007275 0.041082  
2001-11-29 09:53:08 51°28.252 2°48.942 19.44257 0.007275 0.041082  
2001-11-29 09:53:13 51°28.236 2°48.945 19.077432 0.007275 0.041082  
2001-11-29 09:53:17 51°28.223 2°48.948 19.783007 0.007275 0.04108  
2001-11-29 09:53:23 51°28.204 2°48.951 19.54988 0.007176 0.040616  
2001-11-29 09:53:28 51°28.188 2°48.954 19.529107 0.007176 0.040617  
2001-11-29 09:53:33 51°28.172 2°48.958 19.163807 0.007176 0.040618  
2001-11-29 09:53:37 51°28.158 2°48.961 19.163807 0.007176 0.040618  
2001-11-29 09:53:43 51°28.139 2°48.966 19.40373 0.007176 0.040619  
2001-11-29 09:53:48 51°28.123 2°48.969 19.915205 0.007176 0.040618  
2001-11-29 09:53:53 51°28.107 2°48.975 19.41997 0.007176 0.040618  
2001-11-29 09:53:57 51°28.093 2°48.979 19.71003 0.007176 0.040618  
2001-11-29 09:54:03 51°28.074 2°48.986 19.839161 0.007176 0.040619  
2001-11-29 09:54:08 51°28.058 2°48.993 19.839161 0.007176 0.040619  
2001-11-29 09:54:13 51°28.042 2°48.999 19.36446 0.007176 0.040618  
2001-11-29 09:54:18 51°28.026 2°49.004 19.343183 0.007176 0.040619  
2001-11-29 09:54:23 51°28.01 2°49.011 19.344531 0.007176 0.040619  
2001-11-29 09:54:28 51°27.994 2°49.015 20.281382 0.007176 0.040619  
2001-11-29 09:54:33 51°27.978 2°49.021 19.492924 0.007176 0.040619  
2001-11-29 09:54:37 51°27.965 2°49.025 19.492924 0.007176 0.040619  
2001-11-29 09:54:43 51°27.945 2°49.031 19.600889 0.007176 0.040619  
2001-11-29 09:54:48 51°27.929 2°49.037 19.658246 0.007176 0.040619  
2001-11-29 09:54:53 51°27.912 2°49.041 19.705682 0.007176 0.040619  
2001-11-29 09:54:58 51°27.896 2°49.048 19.44571 0.007176 0.040619  
2001-11-29 09:55:03 51°27.879 2°49.053 19.876098 0.007176 0.040619  
2001-11-29 09:55:08 51°27.863 2°49.058 19.876098 0.007176 0.040619  
2001-11-29 09:55:13 51°27.846 2°49.063 19.608092 0.007176 0.04062  
2001-11-29 09:55:18 51°27.83 2°49.068 19.53037 0.007176 0.04062  
2001-11-29 09:55:23 51°27.814 2°49.073 19.223937 0.007176 0.040619  
2001-11-29 09:55:28 51°27.798 2°49.079 19.260423 0.007176 0.04062  
2001-11-29 09:55:33 51°27.781 2°49.085 19.595721 0.007176 0.04062  
2001-11-29 09:55:37 51°27.768 2°49.094 19.595721 0.007176 0.04062  
2001-11-29 09:55:43 51°27.749 2°49.103 19.778096 0.007176 0.04062  
2001-11-29 09:55:47 51°27.736 2°49.11 19.529474 0.007176 0.04062  
2001-11-29 09:55:53 51°27.717 2°49.122 19.530981 0.007176 0.04062  
2001-11-29 09:55:58 51°27.701 2°49.132 19.760882 0.007176 0.04062  
2001-11-29 09:56:03 51°27.685 2°49.142 19.599384 0.007176 0.040619  
2001-11-29 09:56:08 51°27.669 2°49.153 19.599384 0.007176 0.040619  
2001-11-29 09:56:13 51°27.654 2°49.163 19.466345 0.007176 0.04062  
2001-11-29 09:56:18 51°27.638 2°49.173 19.349309 0.007176 0.04062  
2001-11-29 09:56:23 51°27.622 2°49.184 19.539983 0.007176 0.04062  
2001-11-29 09:56:28 51°27.606 2°49.195 19.491171 0.007176 0.04062  
2001-11-29 09:56:33 51°27.59 2°49.204 20.094127 0.007176 0.040619  
2001-11-29 09:56:37 51°27.577 2°49.214 20.094127 0.007176 0.040619  
2001-11-29 09:56:43 51°27.558 2°49.226 19.726727 0.007176 0.040617  
2001-11-29 09:56:47 51°27.544 2°49.233 20.193991 0.007176 0.040619  
2001-11-29 09:56:53 51°27.525 2°49.245 19.769692 0.007176 0.040619  
2001-11-29 09:56:58 51°27.509 2°49.256 19.566494 0.007176 0.040619  
2001-11-29 09:57:03 51°27.492 2°49.265 19.784306 0.007176 0.040618  
2001-11-29 09:57:08 51°27.475 2°49.275 19.784306 0.007176 0.040618  
2001-11-29 09:57:13 51°27.459 2°49.284 19.5254 0.007176 0.040619  
2001-11-29 09:57:18 51°27.442 2°49.294 19.588395 0.007176 0.04062  
2001-11-29 09:57:23 51°27.425 2°49.304 19.708079 0.007176 0.04062  
2001-11-29 09:57:28 51°27.408 2°49.312 19.180431 0.007176 0.04062  
2001-11-29 09:57:33 51°27.391 2°49.322 19.58005 0.007176 0.04062  
2001-11-29 09:57:38 51°27.374 2°49.332 19.58005 0.007176 0.04062  
2001-11-29 09:57:43 51°27.357 2°49.342 20.000191 0.007176 0.04062  
2001-11-29 09:57:48 51°27.341 2°49.352 20.285654 0.007176 0.04062  
2001-11-29 09:57:53 51°27.324 2°49.364 19.860977 0.007176 0.040622  
2001-11-29 09:57:57 51°27.311 2°49.373 19.877274 0.007176 0.040622  
2001-11-29 09:58:03 51°27.292 2°49.389 20.244414 0.007176 0.040623  
2001-11-29 09:58:07 51°27.279 2°49.397 20.244414 0.007176 0.040623  
2001-11-29 09:58:13 51°27.26 2°49.414 20.074161 0.007176 0.040622  
2001-11-29 09:58:18 51°27.243 2°49.427 19.327823 0.007176 0.040622  
2001-11-29 09:58:23 51°27.227 2°49.439 19.539983 0.007176 0.040622  
2001-11-29 09:58:28 51°27.212 2°49.453 19.726402 0.007176 0.040621  
2001-11-29 09:58:33 51°27.195 2°49.466 19.854936 0.007176 0.040621  
2001-11-29 09:58:37 51°27.182 2°49.477 19.854936 0.007176 0.040621  
2001-11-29 09:58:43 51°27.163 2°49.493 19.805125 0.007176 0.040621  
2001-11-29 09:58:47 51°27.15 2°49.502 20.36319 0.007176 0.040622  
2001-11-29 09:58:53 51°27.131 2°49.518 19.914637 0.007176 0.040621  
2001-11-29 09:58:58 51°27.114 2°49.531 20.451216 0.007176 0.040622  
2001-11-29 09:59:03 51°27.098 2°49.543 20.059325 0.007176 0.040621  
2001-11-29 09:59:08 51°27.082 2°49.556 20.059325 0.007176 0.040621  
2001-11-29 09:59:13 51°27.066 2°49.568 20.498041 0.007176 0.040618  
2001-11-29 09:59:18 51°27.05 2°49.578 19.315648 0.007176 0.040618  
2001-11-29 09:59:23 51°27.034 2°49.592 19.931327 0.007176 0.04062  
2001-11-29 09:59:28 51°27.017 2°49.602 20.158108 0.007176 0.040622  
2001-11-29 09:59:33 51°27.001 2°49.615 20.038379 0.007176 0.040624  
2001-11-29 09:59:37 51°26.987 2°49.623 20.038379 0.007176 0.040624  
2001-11-29 09:59:43 51°26.967 2°49.636 19.989426 0.007176 0.040624  
2001-11-29 09:59:48 51°26.951 2°49.649 20.289603 0.007176 0.040623  
2001-11-29 09:59:53 51°26.934 2°49.659 19.390465 0.007077 0.04016  
2001-11-29 09:59:57 51°26.922 2°49.669 19.645151 0.007077 0.04016  
2001-11-29 10:00:03 51°26.902 2°49.682 20.149306 0.007077 0.040159  
2001-11-29 10:00:08 51°26.885 2°49.694 20.149306 0.007077 0.040159  
2001-11-29 10:00:13 51°26.869 2°49.706 19.757715 0.007077 0.04016  
2001-11-29 10:00:18 51°26.852 2°49.717 19.897782 0.007077 0.040161  
2001-11-29 10:00:23 51°26.836 2°49.729 20.15726 0.007077 0.04016  
2001-11-29 10:00:28 51°26.819 2°49.742 20.073514 0.007077 0.04016  
2001-11-29 10:00:33 51°26.803 2°49.753 19.82967 0.007077 0.04016  
2001-11-29 10:00:38 51°26.787 2°49.766 19.82967 0.007077 0.04016  
2001-11-29 10:00:43 51°26.771 2°49.777 19.973924 0.007077 0.04016  
2001-11-29 10:00:48 51°26.754 2°49.79 20.091136 0.007077 0.04016  
2001-11-29 10:00:53 51°26.738 2°49.802 19.938131 0.007077 0.04016  
2001-11-29 10:00:57 51°26.725 2°49.811 19.659303 0.007077 0.04016  
2001-11-29 10:01:03 51°26.705 2°49.825 19.724046 0.007077 0.04016  
2001-11-29 10:01:08 51°26.688 2°49.837 19.724046 0.007077 0.04016  
2001-11-29 10:01:13 51°26.673 2°49.85 19.356579 0.007077 0.04016  
2001-11-29 10:01:17 51°26.66 2°49.86 19.750366 0.007077 0.040161  
2001-11-29 10:01:23 51°26.64 2°49.874 19.957933 0.007077 0.04016  
2001-11-29 10:01:27 51°26.627 2°49.883 20.285412 0.007077 0.040161  
2001-11-29 10:01:33 51°26.607 2°49.899 19.821476 0.007077 0.040162  
2001-11-29 10:01:38 51°26.591 2°49.911 19.821476 0.007077 0.040162  
2001-11-29 10:01:43 51°26.574 2°49.921 19.475599 0.007077 0.040162  
2001-11-29 10:01:48 51°26.558 2°49.934 19.962549 0.007077 0.040161  
2001-11-29 10:01:53 51°26.542 2°49.947 19.48094 0.007077 0.040162  
2001-11-29 10:01:57 51°26.529 2°49.957 20.336052 0.007077 0.040161  
2001-11-29 10:02:03 51°26.509 2°49.971 19.810846 0.007077 0.040161  
2001-11-29 10:02:08 51°26.493 2°49.985 19.810846 0.007077 0.040161  
2001-11-29 10:02:13 51°26.476 2°49.997 20.23772 0.007077 0.040161  
2001-11-29 10:02:17 51°26.463 2°50.007 19.896161 0.007077 0.040161  
2001-11-29 10:02:21 51°26.45 2°50.016 19.848488 0.007077 0.040161  
2001-11-29 10:02:28 51°26.427 2°50.034 19.731114 0.007077 0.040161  
2001-11-29 10:02:33 51°26.411 2°50.046 19.497081 0.007077 0.040162  
2001-11-29 10:02:37 51°26.398 2°50.054 19.497081 0.007077 0.040162  
2001-11-29 10:02:43 51°26.379 2°50.071 20.000555 0.007077 0.040163  
2001-11-29 10:02:48 51°26.362 2°50.083 20.0133 0.007077 0.040162  
2001-11-29 10:02:53 51°26.346 2°50.096 19.95603 0.007077 0.040163  
2001-11-29 10:02:57 51°26.333 2°50.105 19.565028 0.007077 0.040163  
2001-11-29 10:03:03 51°26.313 2°50.12 19.808006 0.007077 0.040163  
2001-11-29 10:03:08 51°26.297 2°50.133 19.808006 0.007077 0.040163  
2001-11-29 10:03:13 51°26.28 2°50.145 20.320868 0.007077 0.040163  
2001-11-29 10:03:17 51°26.267 2°50.155 19.996387 0.007077 0.040163  
2001-11-29 10:03:23 51°26.247 2°50.168 20.14446 0.007077 0.040163  
2001-11-29 10:03:28 51°26.231 2°50.181 19.134686 0.007077 0.040164  
2001-11-29 10:03:33 51°26.215 2°50.194 20.378969 0.007077 0.040164  
2001-11-29 10:03:38 51°26.199 2°50.207 20.378969 0.007077 0.040164  
2001-11-29 10:03:43 51°26.183 2°50.218 19.638929 0.007077 0.040164  
2001-11-29 10:03:48 51°26.166 2°50.23 20.031544 0.007077 0.040164  
2001-11-29 10:03:53 51°26.15 2°50.243 19.916177 0.007077 0.040165  
2001-11-29 10:03:57 51°26.136 2°50.251 19.547029 0.007077 0.040164  
2001-11-29 10:04:03 51°26.116 2°50.26 19.289492 0.007077 0.040164  
2001-11-29 10:04:08 51°26.099 2°50.264 19.289492 0.007077 0.040164  
2001-11-29 10:04:13 51°26.082 2°50.265 19.853638 0.007077 0.040164  
2001-11-29 10:04:17 51°26.069 2°50.264 19.129155 0.007077 0.040164  
2001-11-29 10:04:23 51°26.05 2°50.259 19.261118 0.007077 0.040163  
2001-11-29 10:04:28 51°26.038 2°50.253 20.098895 0.007077 0.040164  
2001-11-29 10:04:33 51°26.027 2°50.246 20.159763 0.007077 0.040165  
2001-11-29 10:04:38 51°26.017 2°50.238 20.159763 0.007077 0.040165  
2001-11-29 10:04:43 51°26.009 2°50.228 19.808858 0.007077 0.040166  
2001-11-29 10:04:48 51°26.001 2°50.217 20.351192 0.007077 0.040166  
2001-11-29 10:04:53 51°25.995 2°50.205 19.642345 0.007077 0.040167  
2001-11-29 10:04:57 51°25.991 2°50.195 20.280334 0.007077 0.040168  
2001-11-29 10:05:03 51°25.985 2°50.179 20.107097 0.007077 0.040167  
2001-11-29 10:05:08 51°25.982 2°50.165 20.107097 0.007077 0.040167  
2001-11-29 10:05:13 51°25.978 2°50.151 20.000353 0.007077 0.040168  
2001-11-29 10:05:17 51°25.975 2°50.141 19.803542 0.007077 0.040167  
2001-11-29 10:05:23 51°25.97 2°50.124 19.82468 0.007077 0.040164  
2001-11-29 10:05:28 51°25.965 2°50.11 19.736476 0.006979 0.039702  
2001-11-29 10:05:33 51°25.96 2°50.097 19.878206 0.007077 0.040166  
2001-11-29 10:05:37 51°25.955 2°50.086 19.878206 0.007077 0.040166  
2001-11-29 10:05:43 51°25.949 2°50.071 19.685403 0.007077 0.040167  
2001-11-29 10:05:48 51°25.943 2°50.058 19.845893 0.006979 0.039704  
2001-11-29 10:05:53 51°25.937 2°50.045 19.6715 0.006979 0.039705  
2001-11-29 10:05:58 51°25.931 2°50.033 19.792667 0.007077 0.040169  
2001-11-29 10:06:03 51°25.924 2°50.02 19.999422 0.006979 0.039706  
2001-11-29 10:06:08 51°25.918 2°50.008 19.999422 0.006979 0.039706  
2001-11-29 10:06:13 51°25.911 2°49.996 19.894945 0.006979 0.039705  
2001-11-29 10:06:18 51°25.905 2°49.984 19.815836 0.006979 0.039706  
2001-11-29 10:06:23 51°25.9 2°49.972 19.791084 0.006979 0.039705  
2001-11-29 10:06:28 51°25.894 2°49.958 20.128831 0.006979 0.039706  
2001-11-29 10:06:33 51°25.889 2°49.945 20.085761 0.006979 0.039707  
2001-11-29 10:06:37 51°25.885 2°49.934 20.085761 0.006979 0.039707  
2001-11-29 10:06:43 51°25.878 2°49.916 19.891987 0.006979 0.039706  
2001-11-29 10:06:48 51°25.874 2°49.901 20.157098 0.006979 0.039707  
2001-11-29 10:06:53 51°25.869 2°49.886 19.851813 0.006979 0.039706  
2001-11-29 10:06:57 51°25.865 2°49.873 19.798308 0.006979 0.039707  
2001-11-29 10:07:03 51°25.859 2°49.854 19.878895 0.006979 0.039707  
2001-11-29 10:07:08 51°25.854 2°49.838 19.878895 0.006979 0.039707  
2001-11-29 10:07:13 51°25.849 2°49.822 19.891946 0.006979 0.039707  
2001-11-29 10:07:17 51°25.845 2°49.81 19.928451 0.006979 0.039708  
2001-11-29 10:07:23 51°25.84 2°49.793 19.806586 0.006979 0.039707  
2001-11-29 10:07:28 51°25.835 2°49.779 19.75 0.006979 0.039709  
2001-11-29 10:07:33 51°25.83 2°49.765 19.942262 0.006979 0.039708  
2001-11-29 10:07:38 51°25.825 2°49.751 19.942262 0.006979 0.039708  
2001-11-29 10:07:43 51°25.82 2°49.736 19.993797 0.006979 0.039708  
2001-11-29 10:07:48 51°25.815 2°49.721 19.962225 0.006979 0.039708  
2001-11-29 10:07:53 51°25.809 2°49.705 20.148619 0.006979 0.039708  
2001-11-29 10:07:57 51°25.804 2°49.693 20.022968 0.006979 0.039708  
2001-11-29 10:08:03 51°25.797 2°49.673 19.729002 0.006979 0.039709  
2001-11-29 10:08:08 51°25.791 2°49.657 19.729002 0.006979 0.039709  
2001-11-29 10:08:13 51°25.785 2°49.641 20.016253 0.006979 0.039708  
2001-11-29 10:08:17 51°25.78 2°49.627 20.039107 0.006979 0.039709  
2001-11-29 10:08:23 51°25.772 2°49.607 20.111784 0.006979 0.039709  
2001-11-29 10:08:28 51°25.766 2°49.59 20.103905 0.006979 0.03971  
2001-11-29 10:08:33 51°25.76 2°49.573 20.289805 0.006979 0.039709  
2001-11-29 10:08:37 51°25.755 2°49.559 20.289805 0.006979 0.039709  
2001-11-29 10:08:43 51°25.748 2°49.539 19.807681 0.006979 0.03971  
2001-11-29 10:08:48 51°25.741 2°49.523 20.26808 0.006979 0.03971  
2001-11-29 10:08:53 51°25.735 2°49.506 20.016779 0.006979 0.03971  
2001-11-29 10:08:57 51°25.73 2°49.493 19.804638 0.006979 0.039711  
2001-11-29 10:09:03 51°25.723 2°49.472 20.219812 0.006979 0.03971  
2001-11-29 10:09:08 51°25.716 2°49.455 20.219812 0.006979 0.03971  
2001-11-29 10:09:13 51°25.71 2°49.438 19.935661 0.006979 0.039711  
2001-11-29 10:09:17 51°25.705 2°49.424 20.203796 0.006979 0.03971  
2001-11-29 10:09:23 51°25.698 2°49.404 20.037044 0.006979 0.039711  
2001-11-29 10:09:28 51°25.692 2°49.387 19.872207 0.006979 0.039711  
2001-11-29 10:09:33 51°25.686 2°49.37 19.853476 0.006979 0.039711  
2001-11-29 10:09:37 51°25.681 2°49.357 19.853476 0.006979 0.039711  
2001-11-29 10:09:43 51°25.674 2°49.337 19.482081 0.006979 0.039711  
2001-11-29 10:09:48 51°25.668 2°49.321 20.0702 0.006979 0.039712  
2001-11-29 10:09:53 51°25.662 2°49.305 19.974977 0.006979 0.039712  
2001-11-29 10:09:57 51°25.657 2°49.293 20.123135 0.006979 0.039711  
2001-11-29 10:10:03 51°25.651 2°49.274 19.878814 0.00688 0.039249  
2001-11-29 10:10:08 51°25.645 2°49.259 19.878814 0.00688 0.039249  
2001-11-29 10:10:13 51°25.639 2°49.242 19.807073 0.006979 0.039713  
2001-11-29 10:10:17 51°25.635 2°49.229 20.343139 0.006979 0.039712  
2001-11-29 10:10:21 51°25.63 2°49.217 19.594541 0.006979 0.039713  
2001-11-29 10:10:28 51°25.622 2°49.194 19.897174 0.006979 0.039713  
2001-11-29 10:10:33 51°25.616 2°49.179 20.15839 0.00688 0.03925  
2001-11-29 10:10:38 51°25.609 2°49.163 20.15839 0.00688 0.03925  
2001-11-29 10:10:43 51°25.603 2°49.146 20.145025 0.00688 0.039249  
2001-11-29 10:10:48 51°25.596 2°49.13 20.194354 0.00688 0.03925  
2001-11-29 10:10:53 51°25.59 2°49.114 20.105562 0.00688 0.039249  
2001-11-29 10:10:57 51°25.584 2°49.1 20.042301 0.00688 0.03925  
2001-11-29 10:11:03 51°25.576 2°49.08 20.17922 0.00688 0.03925  
2001-11-29 10:11:08 51°25.57 2°49.063 20.17922 0.00688 0.03925  
2001-11-29 10:11:13 51°25.563 2°49.045 19.845609 0.00688 0.03925  
2001-11-29 10:11:17 51°25.558 2°49.031 20.196049 0.00688 0.039251  
2001-11-29 10:11:23 51°25.55 2°49.011 19.937807 0.00688 0.03925  
2001-11-29 10:11:28 51°25.543 2°48.994 19.697352 0.00688 0.039251  
2001-11-29 10:11:33 51°25.537 2°48.977 20.211542 0.00688 0.039251  
2001-11-29 10:11:37 51°25.531 2°48.964 20.211542 0.00688 0.039251  
2001-11-29 10:11:43 51°25.523 2°48.942 20.303343 0.00688 0.03925  
2001-11-29 10:11:48 51°25.516 2°48.925 20.17373 0.00688 0.039251  
2001-11-29 10:11:53 51°25.509 2°48.907 20.016496 0.00688 0.039251  
2001-11-29 10:11:57 51°25.504 2°48.894 20.419245 0.00688 0.039251  
2001-11-29 10:12:03 51°25.496 2°48.873 20.195968 0.00688 0.039251  
2001-11-29 10:12:08 51°25.489 2°48.855 20.195968 0.00688 0.039251  
2001-11-29 10:12:13 51°25.483 2°48.838 20.129638 0.00688 0.039251  
2001-11-29 10:12:17 51°25.477 2°48.824 20.178776 0.00688 0.039251  
2001-11-29 10:12:23 51°25.469 2°48.803 19.93886 0.00688 0.039252  
2001-11-29 10:12:28 51°25.463 2°48.785 19.922942 0.00688 0.039252  
2001-11-29 10:12:33 51°25.456 2°48.768 20.035426 0.00688 0.039252  
2001-11-29 10:12:37 51°25.451 2°48.753 20.035426 0.00688 0.039252  
2001-11-29 10:12:43 51°25.443 2°48.733 20.148094 0.00688 0.039252  
2001-11-29 10:12:48 51°25.436 2°48.715 20.227758 0.00688 0.039252  
2001-11-29 10:12:53 51°25.43 2°48.697 19.572763 0.00688 0.039253  
2001-11-29 10:12:57 51°25.425 2°48.682 20.017265 0.00688 0.039252  
2001-11-29 10:13:03 51°25.417 2°48.66 19.926426 0.00688 0.039253  
2001-11-29 10:13:08 51°25.41 2°48.642 19.926426 0.00688 0.039253  
2001-11-29 10:13:13 51°25.403 2°48.624 19.599302 0.00688 0.039253  
2001-11-29 10:13:17 51°25.398 2°48.609 19.630062 0.00688 0.039253